sensor_id;sensor_type;location;lat;lon;timestamp;temperature;humidity
12622;DHT22;6376;48.182;-1.644;2023-07-28T00:01:25;19.40;92.10
12622;DHT22;6376;48.182;-1.644;2023-07-28T00:03:51;19.40;92.20
12622;DHT22;6376;48.182;-1.644;2023-07-28T00:06:16;19.40;92.10
12622;DHT22;6376;48.182;-1.644;2023-07-28T00:08:42;19.40;92.20
12622;DHT22;6376;48.182;-1.644;2023-07-28T00:11:11;19.40;92.50
12622;DHT22;6376;48.182;-1.644;2023-07-28T00:13:40;19.40;92.20
12622;DHT22;6376;48.182;-1.644;2023-07-28T00:16:07;19.40;92.20
12622;DHT22;6376;48.182;-1.644;2023-07-28T00:18:33;19.40;92.10
12622;DHT22;6376;48.182;-1.644;2023-07-28T00:20:58;19.30;92.10
12622;DHT22;6376;48.182;-1.644;2023-07-28T00:23:24;19.40;92.10
12622;DHT22;6376;48.182;-1.644;2023-07-28T00:25:51;19.40;92.20
12622;DHT22;6376;48.182;-1.644;2023-07-28T00:28:16;19.40;92.10
12622;DHT22;6376;48.182;-1.644;2023-07-28T00:30:42;19.40;92.10
12622;DHT22;6376;48.182;-1.644;2023-07-28T00:33:08;19.40;92.40
12622;DHT22;6376;48.182;-1.644;2023-07-28T00:35:33;19.40;92.10
12622;DHT22;6376;48.182;-1.644;2023-07-28T00:37:59;19.40;92.00
12622;DHT22;6376;48.182;-1.644;2023-07-28T00:40:24;19.40;91.90
12622;DHT22;6376;48.182;-1.644;2023-07-28T00:42:50;19.40;92.00
12622;DHT22;6376;48.182;-1.644;2023-07-28T00:45:16;19.40;92.00
12622;DHT22;6376;48.182;-1.644;2023-07-28T00:47:42;19.40;92.20
12622;DHT22;6376;48.182;-1.644;2023-07-28T00:50:11;19.40;92.00
12622;DHT22;6376;48.182;-1.644;2023-07-28T00:52:38;19.40;92.00
12622;DHT22;6376;48.182;-1.644;2023-07-28T00:55:05;19.40;91.90
12622;DHT22;6376;48.182;-1.644;2023-07-28T00:57:30;19.40;91.90
12622;DHT22;6376;48.182;-1.644;2023-07-28T00:59:56;19.40;92.10
12622;DHT22;6376;48.182;-1.644;2023-07-28T01:02:22;19.30;92.00
12622;DHT22;6376;48.182;-1.644;2023-07-28T01:04:48;19.30;92.00
12622;DHT22;6376;48.182;-1.644;2023-07-28T01:07:32;19.40;92.20
12622;DHT22;6376;48.182;-1.644;2023-07-28T01:10:06;19.40;92.00
12622;DHT22;6376;48.182;-1.644;2023-07-28T01:12:32;19.40;92.10
12622;DHT22;6376;48.182;-1.644;2023-07-28T01:14:58;19.40;91.90
12622;DHT22;6376;48.182;-1.644;2023-07-28T01:17:23;19.40;91.80
12622;DHT22;6376;48.182;-1.644;2023-07-28T01:19:50;19.40;92.00
12622;DHT22;6376;48.182;-1.644;2023-07-28T01:22:28;19.40;91.90
12622;DHT22;6376;48.182;-1.644;2023-07-28T01:25:07;19.40;91.90
12622;DHT22;6376;48.182;-1.644;2023-07-28T01:27:37;19.40;91.70
12622;DHT22;6376;48.182;-1.644;2023-07-28T01:30:08;19.40;91.90
12622;DHT22;6376;48.182;-1.644;2023-07-28T01:32:34;19.40;91.70
12622;DHT22;6376;48.182;-1.644;2023-07-28T01:34:59;19.40;91.90
12622;DHT22;6376;48.182;-1.644;2023-07-28T01:37:25;19.40;91.70
12622;DHT22;6376;48.182;-1.644;2023-07-28T01:39:50;19.40;91.70
12622;DHT22;6376;48.182;-1.644;2023-07-28T01:42:16;19.40;91.70
12622;DHT22;6376;48.182;-1.644;2023-07-28T01:44:41;19.40;91.70
12622;DHT22;6376;48.182;-1.644;2023-07-28T01:47:07;19.40;91.70
12622;DHT22;6376;48.182;-1.644;2023-07-28T01:49:33;19.40;91.70
12622;DHT22;6376;48.182;-1.644;2023-07-28T01:51:58;19.40;91.70
12622;DHT22;6376;48.182;-1.644;2023-07-28T01:54:24;19.40;91.60
12622;DHT22;6376;48.182;-1.644;2023-07-28T01:56:50;19.40;91.60
12622;DHT22;6376;48.182;-1.644;2023-07-28T01:59:15;19.40;91.60
12622;DHT22;6376;48.182;-1.644;2023-07-28T02:01:41;19.40;91.60
12622;DHT22;6376;48.182;-1.644;2023-07-28T02:04:06;19.40;91.50
12622;DHT22;6376;48.182;-1.644;2023-07-28T02:06:32;19.40;91.60
12622;DHT22;6376;48.182;-1.644;2023-07-28T02:08:58;19.40;91.60
12622;DHT22;6376;48.182;-1.644;2023-07-28T02:11:23;19.40;91.90
12622;DHT22;6376;48.182;-1.644;2023-07-28T02:13:49;19.40;91.70
12622;DHT22;6376;48.182;-1.644;2023-07-28T02:16:15;19.40;91.60
12622;DHT22;6376;48.182;-1.644;2023-07-28T02:18:41;19.40;91.60
12622;DHT22;6376;48.182;-1.644;2023-07-28T02:21:08;19.40;91.60
12622;DHT22;6376;48.182;-1.644;2023-07-28T02:23:34;19.40;91.60
12622;DHT22;6376;48.182;-1.644;2023-07-28T02:25:59;19.40;91.70
12622;DHT22;6376;48.182;-1.644;2023-07-28T02:28:25;19.40;91.60
12622;DHT22;6376;48.182;-1.644;2023-07-28T02:30:51;19.40;91.70
12622;DHT22;6376;48.182;-1.644;2023-07-28T02:33:16;19.40;91.70
12622;DHT22;6376;48.182;-1.644;2023-07-28T02:35:42;19.40;91.70
12622;DHT22;6376;48.182;-1.644;2023-07-28T02:38:08;19.40;91.90
12622;DHT22;6376;48.182;-1.644;2023-07-28T02:40:34;19.40;92.10
12622;DHT22;6376;48.182;-1.644;2023-07-28T02:42:59;19.40;91.80
12622;DHT22;6376;48.182;-1.644;2023-07-28T02:45:25;19.40;91.70
12622;DHT22;6376;48.182;-1.644;2023-07-28T02:47:51;19.40;91.80
12622;DHT22;6376;48.182;-1.644;2023-07-28T02:50:16;19.40;91.70
12622;DHT22;6376;48.182;-1.644;2023-07-28T02:52:42;19.40;91.90
12622;DHT22;6376;48.182;-1.644;2023-07-28T02:55:08;19.40;92.00
12622;DHT22;6376;48.182;-1.644;2023-07-28T02:57:34;19.40;91.90
12622;DHT22;6376;48.182;-1.644;2023-07-28T02:59:59;19.40;92.20
12622;DHT22;6376;48.182;-1.644;2023-07-28T03:02:25;19.40;91.90
12622;DHT22;6376;48.182;-1.644;2023-07-28T03:04:50;19.30;91.90
12622;DHT22;6376;48.182;-1.644;2023-07-28T03:07:16;19.40;91.90
12622;DHT22;6376;48.182;-1.644;2023-07-28T03:09:42;19.30;91.90
12622;DHT22;6376;48.182;-1.644;2023-07-28T03:12:08;19.30;92.00
12622;DHT22;6376;48.182;-1.644;2023-07-28T03:14:33;19.40;92.00
12622;DHT22;6376;48.182;-1.644;2023-07-28T03:16:59;19.30;92.10
12622;DHT22;6376;48.182;-1.644;2023-07-28T03:19:24;19.30;92.00
12622;DHT22;6376;48.182;-1.644;2023-07-28T03:21:50;19.40;91.90
12622;DHT22;6376;48.182;-1.644;2023-07-28T03:24:16;19.30;91.90
12622;DHT22;6376;48.182;-1.644;2023-07-28T03:26:41;19.30;92.00
12622;DHT22;6376;48.182;-1.644;2023-07-28T03:29:07;19.30;91.90
12622;DHT22;6376;48.182;-1.644;2023-07-28T03:31:33;19.30;91.90
12622;DHT22;6376;48.182;-1.644;2023-07-28T03:34:02;19.30;91.90
12622;DHT22;6376;48.182;-1.644;2023-07-28T03:36:28;19.40;92.10
12622;DHT22;6376;48.182;-1.644;2023-07-28T03:38:54;19.40;92.30
12622;DHT22;6376;48.182;-1.644;2023-07-28T03:41:20;19.40;92.30
12622;DHT22;6376;48.182;-1.644;2023-07-28T03:43:46;19.30;92.10
12622;DHT22;6376;48.182;-1.644;2023-07-28T03:46:11;19.30;92.00
12622;DHT22;6376;48.182;-1.644;2023-07-28T03:48:37;19.30;92.10
12622;DHT22;6376;48.182;-1.644;2023-07-28T03:51:03;19.30;92.00
12622;DHT22;6376;48.182;-1.644;2023-07-28T03:53:28;19.30;92.30
12622;DHT22;6376;48.182;-1.644;2023-07-28T03:55:54;19.30;92.00
12622;DHT22;6376;48.182;-1.644;2023-07-28T03:58:24;19.30;92.00
12622;DHT22;6376;48.182;-1.644;2023-07-28T04:00:51;19.40;91.90
12622;DHT22;6376;48.182;-1.644;2023-07-28T04:03:17;19.30;91.80
12622;DHT22;6376;48.182;-1.644;2023-07-28T04:05:43;19.30;91.80
12622;DHT22;6376;48.182;-1.644;2023-07-28T04:08:08;19.30;91.70
12622;DHT22;6376;48.182;-1.644;2023-07-28T04:10:34;19.40;91.90
12622;DHT22;6376;48.182;-1.644;2023-07-28T04:12:59;19.40;91.70
12622;DHT22;6376;48.182;-1.644;2023-07-28T04:15:25;19.40;91.80
12622;DHT22;6376;48.182;-1.644;2023-07-28T04:17:51;19.30;91.70
12622;DHT22;6376;48.182;-1.644;2023-07-28T04:20:16;19.30;91.60
12622;DHT22;6376;48.182;-1.644;2023-07-28T04:22:42;19.30;91.60
12622;DHT22;6376;48.182;-1.644;2023-07-28T04:25:07;19.40;91.70
12622;DHT22;6376;48.182;-1.644;2023-07-28T04:27:33;19.40;91.80
12622;DHT22;6376;48.182;-1.644;2023-07-28T04:29:59;19.30;91.60
12622;DHT22;6376;48.182;-1.644;2023-07-28T04:32:24;19.30;91.50
12622;DHT22;6376;48.182;-1.644;2023-07-28T04:34:51;19.40;91.80
12622;DHT22;6376;48.182;-1.644;2023-07-28T04:37:17;19.40;91.60
12622;DHT22;6376;48.182;-1.644;2023-07-28T04:39:43;19.40;91.60
12622;DHT22;6376;48.182;-1.644;2023-07-28T04:42:08;19.40;91.60
12622;DHT22;6376;48.182;-1.644;2023-07-28T04:44:36;19.30;91.50
12622;DHT22;6376;48.182;-1.644;2023-07-28T04:47:01;19.30;91.50
12622;DHT22;6376;48.182;-1.644;2023-07-28T04:49:27;19.30;91.60
12622;DHT22;6376;48.182;-1.644;2023-07-28T04:51:52;19.40;91.70
12622;DHT22;6376;48.182;-1.644;2023-07-28T04:54:18;19.30;91.70
12622;DHT22;6376;48.182;-1.644;2023-07-28T04:56:44;19.30;91.90
12622;DHT22;6376;48.182;-1.644;2023-07-28T04:59:10;19.30;91.70
12622;DHT22;6376;48.182;-1.644;2023-07-28T05:01:36;19.40;92.00
12622;DHT22;6376;48.182;-1.644;2023-07-28T05:04:02;19.30;91.70
12622;DHT22;6376;48.182;-1.644;2023-07-28T05:06:27;19.30;91.60
12622;DHT22;6376;48.182;-1.644;2023-07-28T05:08:53;19.30;91.50
12622;DHT22;6376;48.182;-1.644;2023-07-28T05:11:18;19.40;91.70
12622;DHT22;6376;48.182;-1.644;2023-07-28T05:13:44;19.30;91.80
12622;DHT22;6376;48.182;-1.644;2023-07-28T05:16:10;19.30;91.70
12622;DHT22;6376;48.182;-1.644;2023-07-28T05:18:35;19.40;91.80
12622;DHT22;6376;48.182;-1.644;2023-07-28T05:21:02;19.30;91.60
12622;DHT22;6376;48.182;-1.644;2023-07-28T05:23:28;19.30;91.70
12622;DHT22;6376;48.182;-1.644;2023-07-28T05:25:53;19.40;91.70
12622;DHT22;6376;48.182;-1.644;2023-07-28T05:28:19;19.30;91.70
12622;DHT22;6376;48.182;-1.644;2023-07-28T05:30:44;19.30;91.80
12622;DHT22;6376;48.182;-1.644;2023-07-28T05:33:10;19.30;91.90
12622;DHT22;6376;48.182;-1.644;2023-07-28T05:35:36;19.40;91.90
12622;DHT22;6376;48.182;-1.644;2023-07-28T05:38:01;19.40;91.80
12622;DHT22;6376;48.182;-1.644;2023-07-28T05:40:27;19.40;91.90
12622;DHT22;6376;48.182;-1.644;2023-07-28T05:42:53;19.40;91.90
12622;DHT22;6376;48.182;-1.644;2023-07-28T05:45:18;19.40;91.90
12622;DHT22;6376;48.182;-1.644;2023-07-28T05:47:44;19.40;92.00
12622;DHT22;6376;48.182;-1.644;2023-07-28T05:50:10;19.40;91.70
12622;DHT22;6376;48.182;-1.644;2023-07-28T05:52:35;19.40;91.80
12622;DHT22;6376;48.182;-1.644;2023-07-28T05:55:01;19.40;91.90
12622;DHT22;6376;48.182;-1.644;2023-07-28T05:57:26;19.40;91.80
12622;DHT22;6376;48.182;-1.644;2023-07-28T05:59:52;19.40;92.00
12622;DHT22;6376;48.182;-1.644;2023-07-28T06:02:18;19.40;91.70
12622;DHT22;6376;48.182;-1.644;2023-07-28T06:04:43;19.40;91.90
12622;DHT22;6376;48.182;-1.644;2023-07-28T06:07:10;19.40;91.90
12622;DHT22;6376;48.182;-1.644;2023-07-28T06:09:35;19.40;91.90
12622;DHT22;6376;48.182;-1.644;2023-07-28T06:12:01;19.40;91.90
12622;DHT22;6376;48.182;-1.644;2023-07-28T06:14:27;19.40;91.70
12622;DHT22;6376;48.182;-1.644;2023-07-28T06:16:52;19.40;91.90
12622;DHT22;6376;48.182;-1.644;2023-07-28T06:19:18;19.40;91.60
12622;DHT22;6376;48.182;-1.644;2023-07-28T06:21:52;19.40;91.50
12622;DHT22;6376;48.182;-1.644;2023-07-28T06:24:18;19.40;91.50
12622;DHT22;6376;48.182;-1.644;2023-07-28T06:26:43;19.50;91.30
12622;DHT22;6376;48.182;-1.644;2023-07-28T06:29:09;19.50;91.30
12622;DHT22;6376;48.182;-1.644;2023-07-28T06:31:35;19.50;91.50
12622;DHT22;6376;48.182;-1.644;2023-07-28T06:34:00;19.50;91.20
12622;DHT22;6376;48.182;-1.644;2023-07-28T06:36:26;19.50;91.00
12622;DHT22;6376;48.182;-1.644;2023-07-28T06:38:52;19.50;91.30
12622;DHT22;6376;48.182;-1.644;2023-07-28T06:41:20;19.50;90.90
12622;DHT22;6376;48.182;-1.644;2023-07-28T06:43:46;19.50;90.90
12622;DHT22;6376;48.182;-1.644;2023-07-28T06:46:14;19.50;90.80
12622;DHT22;6376;48.182;-1.644;2023-07-28T06:48:39;19.50;90.70
12622;DHT22;6376;48.182;-1.644;2023-07-28T06:51:06;19.50;91.00
12622;DHT22;6376;48.182;-1.644;2023-07-28T06:53:32;19.50;90.90
12622;DHT22;6376;48.182;-1.644;2023-07-28T06:55:57;19.50;90.70
12622;DHT22;6376;48.182;-1.644;2023-07-28T06:58:23;19.50;90.60
12622;DHT22;6376;48.182;-1.644;2023-07-28T07:00:48;19.50;90.50
12622;DHT22;6376;48.182;-1.644;2023-07-28T07:03:14;19.50;91.10
12622;DHT22;6376;48.182;-1.644;2023-07-28T07:05:40;19.50;90.50
12622;DHT22;6376;48.182;-1.644;2023-07-28T07:08:05;19.50;90.50
12622;DHT22;6376;48.182;-1.644;2023-07-28T07:10:31;19.50;90.60
12622;DHT22;6376;48.182;-1.644;2023-07-28T07:12:57;19.50;90.60
12622;DHT22;6376;48.182;-1.644;2023-07-28T07:15:22;19.50;90.60
12622;DHT22;6376;48.182;-1.644;2023-07-28T07:17:48;19.50;90.50
12622;DHT22;6376;48.182;-1.644;2023-07-28T07:20:14;19.50;90.50
12622;DHT22;6376;48.182;-1.644;2023-07-28T07:22:40;19.60;90.70
12622;DHT22;6376;48.182;-1.644;2023-07-28T07:25:06;19.50;90.40
12622;DHT22;6376;48.182;-1.644;2023-07-28T07:27:32;19.50;90.50
12622;DHT22;6376;48.182;-1.644;2023-07-28T07:29:58;19.50;90.60
12622;DHT22;6376;48.182;-1.644;2023-07-28T07:32:24;19.60;90.40
12622;DHT22;6376;48.182;-1.644;2023-07-28T07:34:49;19.60;90.40
12622;DHT22;6376;48.182;-1.644;2023-07-28T07:37:15;19.70;90.20
12622;DHT22;6376;48.182;-1.644;2023-07-28T07:39:40;19.70;90.20
12622;DHT22;6376;48.182;-1.644;2023-07-28T07:42:08;19.70;90.00
12622;DHT22;6376;48.182;-1.644;2023-07-28T07:44:34;19.70;90.00
12622;DHT22;6376;48.182;-1.644;2023-07-28T07:47:00;19.70;89.80
12622;DHT22;6376;48.182;-1.644;2023-07-28T07:49:27;19.70;90.00
12622;DHT22;6376;48.182;-1.644;2023-07-28T07:51:53;19.70;90.20
12622;DHT22;6376;48.182;-1.644;2023-07-28T07:54:19;19.60;90.30
12622;DHT22;6376;48.182;-1.644;2023-07-28T07:56:45;19.60;90.20
12622;DHT22;6376;48.182;-1.644;2023-07-28T07:59:12;19.60;90.20
12622;DHT22;6376;48.182;-1.644;2023-07-28T08:01:38;19.60;90.20
12622;DHT22;6376;48.182;-1.644;2023-07-28T08:04:03;19.60;90.10
12622;DHT22;6376;48.182;-1.644;2023-07-28T08:06:29;19.60;90.30
12622;DHT22;6376;48.182;-1.644;2023-07-28T08:08:55;19.60;90.10
12622;DHT22;6376;48.182;-1.644;2023-07-28T08:11:22;19.60;90.20
12622;DHT22;6376;48.182;-1.644;2023-07-28T08:13:48;19.60;90.10
12622;DHT22;6376;48.182;-1.644;2023-07-28T08:16:14;19.60;90.00
12622;DHT22;6376;48.182;-1.644;2023-07-28T08:18:39;19.60;90.00
12622;DHT22;6376;48.182;-1.644;2023-07-28T08:21:05;19.60;90.10
12622;DHT22;6376;48.182;-1.644;2023-07-28T08:23:31;19.70;90.10
12622;DHT22;6376;48.182;-1.644;2023-07-28T08:25:56;19.70;90.00
12622;DHT22;6376;48.182;-1.644;2023-07-28T08:28:22;19.80;89.80
12622;DHT22;6376;48.182;-1.644;2023-07-28T08:30:55;19.90;89.70
12622;DHT22;6376;48.182;-1.644;2023-07-28T08:33:24;20.00;88.40
12622;DHT22;6376;48.182;-1.644;2023-07-28T08:35:50;19.90;88.40
12622;DHT22;6376;48.182;-1.644;2023-07-28T08:38:16;19.90;89.00
12622;DHT22;6376;48.182;-1.644;2023-07-28T08:40:43;19.80;89.10
12622;DHT22;6376;48.182;-1.644;2023-07-28T08:43:09;19.80;89.20
12622;DHT22;6376;48.182;-1.644;2023-07-28T08:45:36;19.80;89.50
12622;DHT22;6376;48.182;-1.644;2023-07-28T08:48:01;19.80;89.60
12622;DHT22;6376;48.182;-1.644;2023-07-28T08:50:27;19.80;89.90
12622;DHT22;6376;48.182;-1.644;2023-07-28T08:52:53;19.90;89.10
12622;DHT22;6376;48.182;-1.644;2023-07-28T08:55:19;19.90;88.60
12622;DHT22;6376;48.182;-1.644;2023-07-28T08:57:45;20.00;88.30
12622;DHT22;6376;48.182;-1.644;2023-07-28T09:00:11;19.90;88.30
12622;DHT22;6376;48.182;-1.644;2023-07-28T09:02:40;19.90;88.80
12622;DHT22;6376;48.182;-1.644;2023-07-28T09:05:06;19.90;89.20
12622;DHT22;6376;48.182;-1.644;2023-07-28T09:07:35;19.80;89.60
12622;DHT22;6376;48.182;-1.644;2023-07-28T09:10:02;19.80;89.20
12622;DHT22;6376;48.182;-1.644;2023-07-28T09:12:31;19.80;89.50
12622;DHT22;6376;48.182;-1.644;2023-07-28T09:14:57;19.80;89.20
12622;DHT22;6376;48.182;-1.644;2023-07-28T09:17:23;19.80;89.20
12622;DHT22;6376;48.182;-1.644;2023-07-28T09:19:53;19.80;89.50
12622;DHT22;6376;48.182;-1.644;2023-07-28T09:22:19;19.80;89.50
12622;DHT22;6376;48.182;-1.644;2023-07-28T09:24:46;19.80;89.50
12622;DHT22;6376;48.182;-1.644;2023-07-28T09:27:23;19.80;89.60
12622;DHT22;6376;48.182;-1.644;2023-07-28T09:29:53;19.80;89.70
12622;DHT22;6376;48.182;-1.644;2023-07-28T09:32:28;19.80;89.20
12622;DHT22;6376;48.182;-1.644;2023-07-28T09:35:14;19.80;89.10
12622;DHT22;6376;48.182;-1.644;2023-07-28T09:37:45;20.20;87.70
12622;DHT22;6376;48.182;-1.644;2023-07-28T09:40:16;21.00;83.60
12622;DHT22;6376;48.182;-1.644;2023-07-28T09:42:46;21.80;79.40
12622;DHT22;6376;48.182;-1.644;2023-07-28T09:45:18;22.20;76.70
12622;DHT22;6376;48.182;-1.644;2023-07-28T09:47:48;22.10;76.60
12622;DHT22;6376;48.182;-1.644;2023-07-28T09:50:18;21.90;77.30
12622;DHT22;6376;48.182;-1.644;2023-07-28T09:52:46;21.60;79.20
12622;DHT22;6376;48.182;-1.644;2023-07-28T09:55:13;21.10;81.50
12622;DHT22;6376;48.182;-1.644;2023-07-28T09:57:51;20.70;83.80
12622;DHT22;6376;48.182;-1.644;2023-07-28T10:00:17;20.40;85.70
12622;DHT22;6376;48.182;-1.644;2023-07-28T10:02:45;20.30;86.10
12622;DHT22;6376;48.182;-1.644;2023-07-28T10:05:11;20.20;86.60
12622;DHT22;6376;48.182;-1.644;2023-07-28T10:07:40;20.20;87.30
12622;DHT22;6376;48.182;-1.644;2023-07-28T10:10:08;20.10;87.60
12622;DHT22;6376;48.182;-1.644;2023-07-28T10:12:51;20.10;87.60
12622;DHT22;6376;48.182;-1.644;2023-07-28T10:15:20;20.10;87.50
12622;DHT22;6376;48.182;-1.644;2023-07-28T10:17:49;20.10;87.50
12622;DHT22;6376;48.182;-1.644;2023-07-28T10:20:28;20.10;87.30
12622;DHT22;6376;48.182;-1.644;2023-07-28T10:23:04;20.20;87.50
12622;DHT22;6376;48.182;-1.644;2023-07-28T10:25:35;20.20;87.20
12622;DHT22;6376;48.182;-1.644;2023-07-28T10:28:02;20.10;87.40
12622;DHT22;6376;48.182;-1.644;2023-07-28T10:30:32;20.10;87.60
12622;DHT22;6376;48.182;-1.644;2023-07-28T10:32:59;20.10;87.80
12622;DHT22;6376;48.182;-1.644;2023-07-28T10:35:26;20.00;87.90
12622;DHT22;6376;48.182;-1.644;2023-07-28T10:37:53;20.00;88.10
12622;DHT22;6376;48.182;-1.644;2023-07-28T10:40:28;20.00;88.10
12622;DHT22;6376;48.182;-1.644;2023-07-28T10:42:56;20.00;88.30
12622;DHT22;6376;48.182;-1.644;2023-07-28T10:45:23;20.00;88.10
12622;DHT22;6376;48.182;-1.644;2023-07-28T10:47:49;20.00;88.00
12622;DHT22;6376;48.182;-1.644;2023-07-28T10:50:15;20.00;88.10
12622;DHT22;6376;48.182;-1.644;2023-07-28T10:52:42;20.00;88.20
12622;DHT22;6376;48.182;-1.644;2023-07-28T10:55:15;20.10;88.20
12622;DHT22;6376;48.182;-1.644;2023-07-28T10:57:42;20.10;87.70
12622;DHT22;6376;48.182;-1.644;2023-07-28T11:00:10;20.10;87.80
12622;DHT22;6376;48.182;-1.644;2023-07-28T11:02:38;20.10;88.00
12622;DHT22;6376;48.182;-1.644;2023-07-28T11:05:11;20.50;86.60
12622;DHT22;6376;48.182;-1.644;2023-07-28T11:07:44;20.70;85.10
12622;DHT22;6376;48.182;-1.644;2023-07-28T11:10:11;20.70;85.00
12622;DHT22;6376;48.182;-1.644;2023-07-28T11:12:43;20.60;86.30
12622;DHT22;6376;48.182;-1.644;2023-07-28T11:15:09;20.60;85.80
12622;DHT22;6376;48.182;-1.644;2023-07-28T11:17:46;20.60;85.50
12622;DHT22;6376;48.182;-1.644;2023-07-28T11:20:29;20.80;84.50
12622;DHT22;6376;48.182;-1.644;2023-07-28T11:23:00;20.80;84.50
12622;DHT22;6376;48.182;-1.644;2023-07-28T11:25:28;20.90;85.00
12622;DHT22;6376;48.182;-1.644;2023-07-28T11:27:54;20.70;85.10
12622;DHT22;6376;48.182;-1.644;2023-07-28T11:30:21;20.60;85.50
12622;DHT22;6376;48.182;-1.644;2023-07-28T11:32:51;20.50;86.30
12622;DHT22;6376;48.182;-1.644;2023-07-28T11:35:19;20.40;86.40
12622;DHT22;6376;48.182;-1.644;2023-07-28T11:37:47;20.40;86.70
12622;DHT22;6376;48.182;-1.644;2023-07-28T11:40:15;20.30;87.10
12622;DHT22;6376;48.182;-1.644;2023-07-28T11:42:44;20.40;86.80
12622;DHT22;6376;48.182;-1.644;2023-07-28T11:45:12;20.40;86.60
12622;DHT22;6376;48.182;-1.644;2023-07-28T11:47:38;20.40;86.60
12622;DHT22;6376;48.182;-1.644;2023-07-28T11:50:04;20.40;86.70
12622;DHT22;6376;48.182;-1.644;2023-07-28T11:52:36;20.40;86.70
12622;DHT22;6376;48.182;-1.644;2023-07-28T11:55:05;20.40;86.70
12622;DHT22;6376;48.182;-1.644;2023-07-28T11:57:32;20.40;86.70
12622;DHT22;6376;48.182;-1.644;2023-07-28T11:59:59;20.60;86.10
12622;DHT22;6376;48.182;-1.644;2023-07-28T12:02:29;20.80;85.20
12622;DHT22;6376;48.182;-1.644;2023-07-28T12:04:55;20.80;84.70
12622;DHT22;6376;48.182;-1.644;2023-07-28T12:07:33;20.90;84.40
12622;DHT22;6376;48.182;-1.644;2023-07-28T12:10:03;21.00;84.30
12622;DHT22;6376;48.182;-1.644;2023-07-28T12:12:41;21.00;84.10
12622;DHT22;6376;48.182;-1.644;2023-07-28T12:15:25;21.00;84.70
12622;DHT22;6376;48.182;-1.644;2023-07-28T12:18:13;20.90;84.60
12622;DHT22;6376;48.182;-1.644;2023-07-28T12:20:43;20.90;84.40
12622;DHT22;6376;48.182;-1.644;2023-07-28T12:23:14;20.80;84.50
12622;DHT22;6376;48.182;-1.644;2023-07-28T12:25:41;20.80;84.80
12622;DHT22;6376;48.182;-1.644;2023-07-28T12:28:07;20.80;85.00
12622;DHT22;6376;48.182;-1.644;2023-07-28T12:30:33;20.80;84.80
12622;DHT22;6376;48.182;-1.644;2023-07-28T12:32:59;20.80;85.00
12622;DHT22;6376;48.182;-1.644;2023-07-28T12:35:26;20.80;85.10
12622;DHT22;6376;48.182;-1.644;2023-07-28T12:37:56;20.90;84.40
12622;DHT22;6376;48.182;-1.644;2023-07-28T12:40:22;21.00;84.00
12622;DHT22;6376;48.182;-1.644;2023-07-28T12:42:49;20.90;84.30
12622;DHT22;6376;48.182;-1.644;2023-07-28T12:45:15;20.80;84.90
12622;DHT22;6376;48.182;-1.644;2023-07-28T12:47:42;20.80;85.20
12622;DHT22;6376;48.182;-1.644;2023-07-28T12:50:09;20.80;85.10
12622;DHT22;6376;48.182;-1.644;2023-07-28T12:52:35;20.80;85.10
12622;DHT22;6376;48.182;-1.644;2023-07-28T12:55:02;20.80;85.20
12622;DHT22;6376;48.182;-1.644;2023-07-28T12:57:27;20.80;85.10
12622;DHT22;6376;48.182;-1.644;2023-07-28T12:59:53;20.80;85.30
12622;DHT22;6376;48.182;-1.644;2023-07-28T13:02:19;20.70;85.30
12622;DHT22;6376;48.182;-1.644;2023-07-28T13:04:44;20.70;85.50
12622;DHT22;6376;48.182;-1.644;2023-07-28T13:07:10;20.70;85.50
12622;DHT22;6376;48.182;-1.644;2023-07-28T13:09:36;20.70;85.30
12622;DHT22;6376;48.182;-1.644;2023-07-28T13:12:01;20.80;85.30
12622;DHT22;6376;48.182;-1.644;2023-07-28T13:14:27;20.80;85.20
12622;DHT22;6376;48.182;-1.644;2023-07-28T13:16:52;20.70;85.30
12622;DHT22;6376;48.182;-1.644;2023-07-28T13:19:18;20.70;85.60
12622;DHT22;6376;48.182;-1.644;2023-07-28T13:21:44;20.70;85.80
12622;DHT22;6376;48.182;-1.644;2023-07-28T13:24:10;20.70;85.80
12622;DHT22;6376;48.182;-1.644;2023-07-28T13:26:35;20.70;85.60
12622;DHT22;6376;48.182;-1.644;2023-07-28T13:29:01;20.70;85.70
12622;DHT22;6376;48.182;-1.644;2023-07-28T13:31:28;20.70;85.60
12622;DHT22;6376;48.182;-1.644;2023-07-28T13:33:54;20.70;85.70
12622;DHT22;6376;48.182;-1.644;2023-07-28T13:36:20;20.80;85.50
12622;DHT22;6376;48.182;-1.644;2023-07-28T13:38:45;20.80;85.50
12622;DHT22;6376;48.182;-1.644;2023-07-28T13:41:11;20.80;85.50
12622;DHT22;6376;48.182;-1.644;2023-07-28T13:43:37;20.70;85.50
12622;DHT22;6376;48.182;-1.644;2023-07-28T13:46:06;20.70;85.60
12622;DHT22;6376;48.182;-1.644;2023-07-28T13:48:32;20.70;85.60
12622;DHT22;6376;48.182;-1.644;2023-07-28T13:50:57;20.80;85.70
12622;DHT22;6376;48.182;-1.644;2023-07-28T13:53:24;20.80;85.60
12622;DHT22;6376;48.182;-1.644;2023-07-28T13:55:50;20.80;85.60
12622;DHT22;6376;48.182;-1.644;2023-07-28T13:58:17;20.80;85.60
12622;DHT22;6376;48.182;-1.644;2023-07-28T14:00:44;20.80;85.60
12622;DHT22;6376;48.182;-1.644;2023-07-28T14:03:09;20.70;86.10
12622;DHT22;6376;48.182;-1.644;2023-07-28T14:05:35;20.70;85.80
12622;DHT22;6376;48.182;-1.644;2023-07-28T14:08:01;20.70;85.90
12622;DHT22;6376;48.182;-1.644;2023-07-28T14:10:27;20.70;85.90
12622;DHT22;6376;48.182;-1.644;2023-07-28T14:12:52;20.70;86.00
12622;DHT22;6376;48.182;-1.644;2023-07-28T14:15:18;20.70;86.00
12622;DHT22;6376;48.182;-1.644;2023-07-28T14:17:44;20.70;86.00
12622;DHT22;6376;48.182;-1.644;2023-07-28T14:20:09;20.70;85.90
12622;DHT22;6376;48.182;-1.644;2023-07-28T14:22:36;20.70;85.90
12622;DHT22;6376;48.182;-1.644;2023-07-28T14:25:02;20.70;85.90
12622;DHT22;6376;48.182;-1.644;2023-07-28T14:27:28;20.70;86.10
12622;DHT22;6376;48.182;-1.644;2023-07-28T14:29:54;20.80;86.10
12622;DHT22;6376;48.182;-1.644;2023-07-28T14:32:19;20.80;86.10
12622;DHT22;6376;48.182;-1.644;2023-07-28T14:34:45;20.80;85.90
12622;DHT22;6376;48.182;-1.644;2023-07-28T14:37:11;20.80;85.90
12622;DHT22;6376;48.182;-1.644;2023-07-28T14:39:36;20.80;85.90
12622;DHT22;6376;48.182;-1.644;2023-07-28T14:42:02;20.80;85.90
12622;DHT22;6376;48.182;-1.644;2023-07-28T14:44:28;20.80;85.90
12622;DHT22;6376;48.182;-1.644;2023-07-28T14:46:54;20.80;86.00
12622;DHT22;6376;48.182;-1.644;2023-07-28T14:49:20;20.80;86.00
12622;DHT22;6376;48.182;-1.644;2023-07-28T14:51:46;20.80;86.20
12622;DHT22;6376;48.182;-1.644;2023-07-28T14:54:11;20.80;86.10
12622;DHT22;6376;48.182;-1.644;2023-07-28T14:56:37;20.80;86.10
12622;DHT22;6376;48.182;-1.644;2023-07-28T14:59:03;20.80;86.00
12622;DHT22;6376;48.182;-1.644;2023-07-28T15:01:29;20.80;86.00
12622;DHT22;6376;48.182;-1.644;2023-07-28T15:03:55;20.80;86.10
12622;DHT22;6376;48.182;-1.644;2023-07-28T15:06:21;20.80;86.20
12622;DHT22;6376;48.182;-1.644;2023-07-28T15:08:47;20.80;86.10
12622;DHT22;6376;48.182;-1.644;2023-07-28T15:11:13;20.80;86.10
12622;DHT22;6376;48.182;-1.644;2023-07-28T15:13:39;20.80;86.10
12622;DHT22;6376;48.182;-1.644;2023-07-28T15:16:06;20.80;86.20
12622;DHT22;6376;48.182;-1.644;2023-07-28T15:18:31;20.80;86.30
12622;DHT22;6376;48.182;-1.644;2023-07-28T15:20:57;20.80;86.10
12622;DHT22;6376;48.182;-1.644;2023-07-28T15:23:25;20.80;86.10
12622;DHT22;6376;48.182;-1.644;2023-07-28T15:25:52;20.80;86.10
12622;DHT22;6376;48.182;-1.644;2023-07-28T15:28:18;20.80;85.90